Umbarger, TX (79091)

4:36 AM CDT on April 19, 2015 (GMT -0500)
East of Canyon | | Change Station
CLOSE
Current Station
Personal Weather Station
Location: Canyon, TX
Elevation: 3694 ft
Nearby Weather Stations

Elev 3694 ft 34.96 °N, 101.80 °W | Updated 9 minutes ago

Clear
Clear
44.7 °F
Feels Like 38 °F
N
15.8
Wind Variable Wind from WNW
Gusts 15.8 mph

Today
High -- | Low -- °F
--% Chance of Precip.
Yesterday
High -- | Low -- °F
Precip. -- in
7:10 AM 8:23 PM
New Moon, 1% visible
Pressure 29.88 in
Visibility 10.0 miles
Clouds Clear
Windchill 38 °F
Dew Point 36 °F
Humidity 70%
Rainfall -999.00 in
Snow Depth Not available.
UV 0 out of 12
Pollen 9.90 out of 12
Air Quality Not available.
Flu Activity Local Activity
METAR KHRX 190915Z AUTO 35010KT 10SM CLR 05/01 A2988 RMK AO2 T00540011

More Conditions Fewer Conditions

Pressure 29.88 in
Visibility 10.0 miles
Clouds Clear
Windchill 38 °F
Dew Point 36 °F
Humidity 70%
Rainfall -999.00 in
Snow Depth Not available.
UV 0 out of 12
Pollen 9.90 out of 12
Air Quality Not available.
Flu Activity Local Activity
METAR KHRX 190915Z AUTO 35010KT 10SM CLR 05/01 A2988 RMK AO2 T00540011

More Conditions Fewer Conditions

10-Day Weather Forecast

Almanac

Astronomy

Apr. 19, 2015 Rise Set
Actual Time
Civil Twilight
Nautical Twilight
Astronomical Twilight
Moon
Length of Visible Light
Length of Day
Tomorrow will be .
, % of the Moon is Illuminated

Today's Extremes

State Highs State Lows

Community

WunderPhotos

Upload Photos

1,814,753 photos uploaded!

WunderBlogs® & News

Nearby

Air Quality

  Air Quality AQ Index Pollutant
Not available.

Snow Depth

Station Depth Elevation

Earthquake Activity

City Distance Mag. Time & Date
Minimum magnitude displayed is 2.5.

Coastal Water Temperatures

Place Temperature

Stations

Nearby Weather Stations

Station Location Temp. Windchill Dew Point Humidity Wind Precip. Elev Updated Type